sensor_id;sensor_type;location;lat;lon;timestamp;P1;durP1;ratioP1;P2;durP2;ratioP2
28003;SDS011;15330;51.234;6.754;2023-08-06T00:00:46;7.88;;;4.97;;
28003;SDS011;15330;51.234;6.754;2023-08-06T00:03:11;8.80;;;4.63;;
28003;SDS011;15330;51.234;6.754;2023-08-06T00:05:37;6.93;;;5.10;;
28003;SDS011;15330;51.234;6.754;2023-08-06T00:08:02;14.43;;;4.32;;
28003;SDS011;15330;51.234;6.754;2023-08-06T00:10:27;6.13;;;4.68;;
28003;SDS011;15330;51.234;6.754;2023-08-06T00:12:53;6.18;;;4.47;;
28003;SDS011;15330;51.234;6.754;2023-08-06T00:15:18;7.28;;;4.22;;
28003;SDS011;15330;51.234;6.754;2023-08-06T00:17:44;7.45;;;4.47;;
28003;SDS011;15330;51.234;6.754;2023-08-06T00:20:09;6.70;;;4.38;;
28003;SDS011;15330;51.234;6.754;2023-08-06T00:22:36;7.15;;;4.03;;
28003;SDS011;15330;51.234;6.754;2023-08-06T00:25:02;5.25;;;4.15;;
28003;SDS011;15330;51.234;6.754;2023-08-06T00:27:29;7.35;;;4.70;;
28003;SDS011;15330;51.234;6.754;2023-08-06T00:29:54;7.15;;;4.45;;
28003;SDS011;15330;51.234;6.754;2023-08-06T00:32:20;7.38;;;4.65;;
28003;SDS011;15330;51.234;6.754;2023-08-06T00:34:46;9.38;;;5.22;;
28003;SDS011;15330;51.234;6.754;2023-08-06T00:37:11;7.70;;;4.85;;
28003;SDS011;15330;51.234;6.754;2023-08-06T00:39:36;7.55;;;4.95;;
28003;SDS011;15330;51.234;6.754;2023-08-06T00:42:02;7.50;;;4.78;;
28003;SDS011;15330;51.234;6.754;2023-08-06T00:44:28;14.93;;;4.78;;
28003;SDS011;15330;51.234;6.754;2023-08-06T00:46:53;10.95;;;4.90;;
28003;SDS011;15330;51.234;6.754;2023-08-06T00:49:18;7.50;;;4.97;;
28003;SDS011;15330;51.234;6.754;2023-08-06T00:51:44;7.85;;;4.97;;
28003;SDS011;15330;51.234;6.754;2023-08-06T00:54:10;9.15;;;4.53;;
28003;SDS011;15330;51.234;6.754;2023-08-06T00:56:35;9.85;;;4.63;;
28003;SDS011;15330;51.234;6.754;2023-08-06T00:59:02;8.68;;;4.78;;
28003;SDS011;15330;51.234;6.754;2023-08-06T01:01:29;6.28;;;4.40;;
28003;SDS011;15330;51.234;6.754;2023-08-06T01:03:55;6.43;;;4.40;;
28003;SDS011;15330;51.234;6.754;2023-08-06T01:06:23;8.07;;;4.28;;
28003;SDS011;15330;51.234;6.754;2023-08-06T01:09:16;7.55;;;4.03;;
28003;SDS011;15330;51.234;6.754;2023-08-06T01:11:56;7.13;;;3.72;;
28003;SDS011;15330;51.234;6.754;2023-08-06T01:14:47;6.40;;;3.95;;
28003;SDS011;15330;51.234;6.754;2023-08-06T01:17:19;5.20;;;4.22;;
28003;SDS011;15330;51.234;6.754;2023-08-06T01:19:45;6.47;;;3.85;;
28003;SDS011;15330;51.234;6.754;2023-08-06T01:22:10;7.35;;;3.88;;
28003;SDS011;15330;51.234;6.754;2023-08-06T01:24:36;4.53;;;3.72;;
28003;SDS011;15330;51.234;6.754;2023-08-06T01:27:06;5.65;;;4.20;;
28003;SDS011;15330;51.234;6.754;2023-08-06T01:29:53;5.63;;;4.05;;
28003;SDS011;15330;51.234;6.754;2023-08-06T01:32:26;8.40;;;3.90;;
28003;SDS011;15330;51.234;6.754;2023-08-06T01:34:54;7.15;;;3.80;;
28003;SDS011;15330;51.234;6.754;2023-08-06T01:37:20;8.73;;;3.80;;
28003;SDS011;15330;51.234;6.754;2023-08-06T01:39:45;6.63;;;4.30;;
28003;SDS011;15330;51.234;6.754;2023-08-06T01:42:11;8.18;;;4.32;;
28003;SDS011;15330;51.234;6.754;2023-08-06T01:44:36;10.07;;;4.40;;
28003;SDS011;15330;51.234;6.754;2023-08-06T01:47:02;7.10;;;3.90;;
28003;SDS011;15330;51.234;6.754;2023-08-06T01:49:27;8.15;;;4.00;;
28003;SDS011;15330;51.234;6.754;2023-08-06T01:51:52;7.13;;;4.43;;
28003;SDS011;15330;51.234;6.754;2023-08-06T01:54:18;6.57;;;4.50;;
28003;SDS011;15330;51.234;6.754;2023-08-06T01:56:43;11.30;;;5.05;;
28003;SDS011;15330;51.234;6.754;2023-08-06T01:59:08;5.55;;;3.70;;
28003;SDS011;15330;51.234;6.754;2023-08-06T02:01:34;8.70;;;4.20;;
28003;SDS011;15330;51.234;6.754;2023-08-06T02:03:59;8.68;;;4.07;;
28003;SDS011;15330;51.234;6.754;2023-08-06T02:06:24;5.32;;;3.80;;
28003;SDS011;15330;51.234;6.754;2023-08-06T02:08:50;6.55;;;4.15;;
28003;SDS011;15330;51.234;6.754;2023-08-06T02:11:15;6.78;;;4.32;;
28003;SDS011;15330;51.234;6.754;2023-08-06T02:13:40;9.40;;;4.65;;
28003;SDS011;15330;51.234;6.754;2023-08-06T02:16:06;6.72;;;4.30;;
28003;SDS011;15330;51.234;6.754;2023-08-06T02:18:33;6.57;;;4.45;;
28003;SDS011;15330;51.234;6.754;2023-08-06T02:20:59;6.05;;;4.18;;
28003;SDS011;15330;51.234;6.754;2023-08-06T02:23:25;7.68;;;4.03;;
28003;SDS011;15330;51.234;6.754;2023-08-06T02:26:23;5.82;;;4.30;;
28003;SDS011;15330;51.234;6.754;2023-08-06T02:28:42;4.53;;;3.95;;
28003;SDS011;15330;51.234;6.754;2023-08-06T02:31:07;6.95;;;4.65;;
28003;SDS011;15330;51.234;6.754;2023-08-06T02:33:33;7.22;;;4.38;;
28003;SDS011;15330;51.234;6.754;2023-08-06T02:35:59;5.55;;;4.63;;
28003;SDS011;15330;51.234;6.754;2023-08-06T02:38:28;6.35;;;4.40;;
28003;SDS011;15330;51.234;6.754;2023-08-06T02:40:54;6.38;;;4.53;;
28003;SDS011;15330;51.234;6.754;2023-08-06T02:43:19;7.53;;;4.25;;
28003;SDS011;15330;51.234;6.754;2023-08-06T02:45:45;5.95;;;4.75;;
28003;SDS011;15330;51.234;6.754;2023-08-06T02:48:10;8.18;;;4.15;;
28003;SDS011;15330;51.234;6.754;2023-08-06T02:50:39;7.10;;;4.63;;
28003;SDS011;15330;51.234;6.754;2023-08-06T02:53:05;5.60;;;4.28;;
28003;SDS011;15330;51.234;6.754;2023-08-06T02:55:31;11.20;;;4.38;;
28003;SDS011;15330;51.234;6.754;2023-08-06T02:57:57;6.35;;;4.35;;
28003;SDS011;15330;51.234;6.754;2023-08-06T03:00:22;6.72;;;4.88;;
28003;SDS011;15330;51.234;6.754;2023-08-06T03:02:48;6.70;;;4.35;;
28003;SDS011;15330;51.234;6.754;2023-08-06T03:05:13;7.47;;;4.70;;
28003;SDS011;15330;51.234;6.754;2023-08-06T03:07:38;8.25;;;4.93;;
28003;SDS011;15330;51.234;6.754;2023-08-06T03:10:04;7.43;;;4.90;;
28003;SDS011;15330;51.234;6.754;2023-08-06T03:12:29;6.85;;;4.63;;
28003;SDS011;15330;51.234;6.754;2023-08-06T03:14:55;6.80;;;4.85;;
28003;SDS011;15330;51.234;6.754;2023-08-06T03:17:20;6.72;;;4.50;;
28003;SDS011;15330;51.234;6.754;2023-08-06T03:19:46;8.43;;;4.70;;
28003;SDS011;15330;51.234;6.754;2023-08-06T03:22:11;7.60;;;4.88;;
28003;SDS011;15330;51.234;6.754;2023-08-06T03:24:36;8.82;;;6.40;;
28003;SDS011;15330;51.234;6.754;2023-08-06T03:27:02;8.82;;;5.63;;
28003;SDS011;15330;51.234;6.754;2023-08-06T03:29:27;5.88;;;4.82;;
28003;SDS011;15330;51.234;6.754;2023-08-06T03:31:53;9.38;;;5.22;;
28003;SDS011;15330;51.234;6.754;2023-08-06T03:34:18;10.90;;;5.75;;
28003;SDS011;15330;51.234;6.754;2023-08-06T03:36:43;7.28;;;4.93;;
28003;SDS011;15330;51.234;6.754;2023-08-06T03:39:09;7.38;;;5.38;;
28003;SDS011;15330;51.234;6.754;2023-08-06T03:41:34;5.45;;;4.95;;
28003;SDS011;15330;51.234;6.754;2023-08-06T03:44:00;8.30;;;5.13;;
28003;SDS011;15330;51.234;6.754;2023-08-06T03:46:27;8.20;;;5.00;;
28003;SDS011;15330;51.234;6.754;2023-08-06T03:48:53;9.90;;;4.90;;
28003;SDS011;15330;51.234;6.754;2023-08-06T03:51:18;10.90;;;4.75;;
28003;SDS011;15330;51.234;6.754;2023-08-06T03:53:44;11.95;;;4.70;;
28003;SDS011;15330;51.234;6.754;2023-08-06T03:56:09;6.22;;;4.20;;
28003;SDS011;15330;51.234;6.754;2023-08-06T03:58:34;8.63;;;4.60;;
28003;SDS011;15330;51.234;6.754;2023-08-06T04:01:00;6.95;;;4.70;;
28003;SDS011;15330;51.234;6.754;2023-08-06T04:03:26;6.10;;;3.95;;
28003;SDS011;15330;51.234;6.754;2023-08-06T04:05:52;6.22;;;4.75;;
28003;SDS011;15330;51.234;6.754;2023-08-06T04:08:17;6.13;;;3.80;;
28003;SDS011;15330;51.234;6.754;2023-08-06T04:10:43;9.93;;;4.55;;
28003;SDS011;15330;51.234;6.754;2023-08-06T04:13:08;7.15;;;4.43;;
28003;SDS011;15330;51.234;6.754;2023-08-06T04:15:34;7.32;;;4.47;;
28003;SDS011;15330;51.234;6.754;2023-08-06T04:17:59;5.07;;;4.15;;
28003;SDS011;15330;51.234;6.754;2023-08-06T04:20:25;6.40;;;4.20;;
28003;SDS011;15330;51.234;6.754;2023-08-06T04:22:50;5.97;;;3.80;;
28003;SDS011;15330;51.234;6.754;2023-08-06T04:25:15;4.88;;;3.33;;
28003;SDS011;15330;51.234;6.754;2023-08-06T04:27:46;7.43;;;4.05;;
28003;SDS011;15330;51.234;6.754;2023-08-06T04:30:14;6.60;;;3.53;;
28003;SDS011;15330;51.234;6.754;2023-08-06T04:32:39;4.05;;;3.65;;
28003;SDS011;15330;51.234;6.754;2023-08-06T04:35:05;9.20;;;4.45;;
28003;SDS011;15330;51.234;6.754;2023-08-06T04:37:31;9.98;;;3.92;;
28003;SDS011;15330;51.234;6.754;2023-08-06T04:39:56;4.25;;;3.80;;
28003;SDS011;15330;51.234;6.754;2023-08-06T04:42:21;6.30;;;4.72;;
28003;SDS011;15330;51.234;6.754;2023-08-06T04:44:47;6.72;;;4.03;;
28003;SDS011;15330;51.234;6.754;2023-08-06T04:47:12;8.10;;;4.35;;
28003;SDS011;15330;51.234;6.754;2023-08-06T04:49:37;5.45;;;4.10;;
28003;SDS011;15330;51.234;6.754;2023-08-06T04:52:03;8.90;;;3.53;;
28003;SDS011;15330;51.234;6.754;2023-08-06T04:54:29;8.63;;;4.30;;
28003;SDS011;15330;51.234;6.754;2023-08-06T04:56:54;7.57;;;4.38;;
28003;SDS011;15330;51.234;6.754;2023-08-06T04:59:19;8.50;;;4.10;;
28003;SDS011;15330;51.234;6.754;2023-08-06T05:01:45;7.95;;;3.85;;
28003;SDS011;15330;51.234;6.754;2023-08-06T05:04:10;7.13;;;4.80;;
28003;SDS011;15330;51.234;6.754;2023-08-06T05:06:35;4.82;;;3.85;;
28003;SDS011;15330;51.234;6.754;2023-08-06T05:09:03;6.65;;;4.40;;
28003;SDS011;15330;51.234;6.754;2023-08-06T05:11:29;6.15;;;4.07;;
28003;SDS011;15330;51.234;6.754;2023-08-06T05:13:55;8.82;;;4.03;;
28003;SDS011;15330;51.234;6.754;2023-08-06T05:16:20;9.23;;;4.55;;
28003;SDS011;15330;51.234;6.754;2023-08-06T05:18:45;7.10;;;4.75;;
28003;SDS011;15330;51.234;6.754;2023-08-06T05:21:11;6.38;;;4.80;;
28003;SDS011;15330;51.234;6.754;2023-08-06T05:23:36;8.85;;;4.65;;
28003;SDS011;15330;51.234;6.754;2023-08-06T05:26:02;10.40;;;4.30;;
28003;SDS011;15330;51.234;6.754;2023-08-06T05:28:27;8.85;;;4.50;;
28003;SDS011;15330;51.234;6.754;2023-08-06T05:30:53;7.25;;;4.40;;
28003;SDS011;15330;51.234;6.754;2023-08-06T05:33:18;9.60;;;4.57;;
28003;SDS011;15330;51.234;6.754;2023-08-06T05:35:43;6.97;;;4.18;;
28003;SDS011;15330;51.234;6.754;2023-08-06T05:38:09;6.90;;;4.00;;
28003;SDS011;15330;51.234;6.754;2023-08-06T05:40:34;6.38;;;4.75;;
28003;SDS011;15330;51.234;6.754;2023-08-06T05:43:00;5.70;;;4.30;;
28003;SDS011;15330;51.234;6.754;2023-08-06T05:45:25;4.93;;;3.70;;
28003;SDS011;15330;51.234;6.754;2023-08-06T05:47:50;5.63;;;3.80;;
28003;SDS011;15330;51.234;6.754;2023-08-06T05:50:16;5.60;;;3.50;;
28003;SDS011;15330;51.234;6.754;2023-08-06T05:52:41;4.75;;;3.35;;
28003;SDS011;15330;51.234;6.754;2023-08-06T05:55:07;4.63;;;2.90;;
28003;SDS011;15330;51.234;6.754;2023-08-06T05:57:32;6.40;;;3.47;;
28003;SDS011;15330;51.234;6.754;2023-08-06T05:59:58;6.65;;;3.75;;
28003;SDS011;15330;51.234;6.754;2023-08-06T06:02:23;4.60;;;3.10;;
28003;SDS011;15330;51.234;6.754;2023-08-06T06:04:49;10.07;;;3.50;;
28003;SDS011;15330;51.234;6.754;2023-08-06T06:07:14;4.93;;;2.92;;
28003;SDS011;15330;51.234;6.754;2023-08-06T06:09:39;3.22;;;2.67;;
28003;SDS011;15330;51.234;6.754;2023-08-06T06:12:06;3.65;;;2.70;;
28003;SDS011;15330;51.234;6.754;2023-08-06T06:14:31;3.83;;;2.55;;
28003;SDS011;15330;51.234;6.754;2023-08-06T06:16:56;5.85;;;2.53;;
28003;SDS011;15330;51.234;6.754;2023-08-06T06:19:22;5.47;;;2.95;;
28003;SDS011;15330;51.234;6.754;2023-08-06T06:21:47;6.75;;;3.40;;
28003;SDS011;15330;51.234;6.754;2023-08-06T06:24:13;6.15;;;3.20;;
28003;SDS011;15330;51.234;6.754;2023-08-06T06:26:38;3.95;;;2.42;;
28003;SDS011;15330;51.234;6.754;2023-08-06T06:29:04;6.18;;;2.58;;
28003;SDS011;15330;51.234;6.754;2023-08-06T06:31:29;3.95;;;2.85;;
28003;SDS011;15330;51.234;6.754;2023-08-06T06:33:55;5.82;;;3.10;;
28003;SDS011;15330;51.234;6.754;2023-08-06T06:36:20;6.65;;;3.22;;
28003;SDS011;15330;51.234;6.754;2023-08-06T06:38:46;4.78;;;2.28;;
28003;SDS011;15330;51.234;6.754;2023-08-06T06:41:11;6.25;;;3.08;;
28003;SDS011;15330;51.234;6.754;2023-08-06T06:43:37;5.82;;;3.30;;
28003;SDS011;15330;51.234;6.754;2023-08-06T06:46:04;4.95;;;2.90;;
28003;SDS011;15330;51.234;6.754;2023-08-06T06:48:31;5.93;;;3.30;;
28003;SDS011;15330;51.234;6.754;2023-08-06T06:50:57;4.60;;;2.17;;
28003;SDS011;15330;51.234;6.754;2023-08-06T06:53:23;4.15;;;2.50;;
28003;SDS011;15330;51.234;6.754;2023-08-06T06:55:53;2.97;;;2.45;;
28003;SDS011;15330;51.234;6.754;2023-08-06T06:58:21;5.20;;;3.13;;
28003;SDS011;15330;51.234;6.754;2023-08-06T07:00:47;3.50;;;2.50;;
28003;SDS011;15330;51.234;6.754;2023-08-06T07:03:16;6.40;;;2.70;;
28003;SDS011;15330;51.234;6.754;2023-08-06T07:05:43;5.50;;;3.90;;
28003;SDS011;15330;51.234;6.754;2023-08-06T07:08:09;5.20;;;4.10;;
28003;SDS011;15330;51.234;6.754;2023-08-06T07:10:34;8.88;;;4.57;;
28003;SDS011;15330;51.234;6.754;2023-08-06T07:13:00;6.57;;;4.60;;
28003;SDS011;15330;51.234;6.754;2023-08-06T07:15:25;5.55;;;3.97;;
28003;SDS011;15330;51.234;6.754;2023-08-06T07:17:50;6.88;;;3.97;;
28003;SDS011;15330;51.234;6.754;2023-08-06T07:20:16;7.00;;;5.60;;
28003;SDS011;15330;51.234;6.754;2023-08-06T07:22:41;10.18;;;5.90;;
28003;SDS011;15330;51.234;6.754;2023-08-06T07:25:07;9.18;;;6.82;;
28003;SDS011;15330;51.234;6.754;2023-08-06T07:27:32;11.10;;;6.38;;
28003;SDS011;15330;51.234;6.754;2023-08-06T07:29:58;10.70;;;6.90;;
28003;SDS011;15330;51.234;6.754;2023-08-06T07:32:24;9.32;;;6.35;;
28003;SDS011;15330;51.234;6.754;2023-08-06T07:34:49;8.65;;;7.10;;
28003;SDS011;15330;51.234;6.754;2023-08-06T07:37:15;9.73;;;6.65;;
28003;SDS011;15330;51.234;6.754;2023-08-06T07:39:40;9.88;;;6.20;;
28003;SDS011;15330;51.234;6.754;2023-08-06T07:42:07;7.80;;;6.20;;
28003;SDS011;15330;51.234;6.754;2023-08-06T07:44:32;6.57;;;5.57;;
28003;SDS011;15330;51.234;6.754;2023-08-06T07:46:58;8.50;;;5.55;;
28003;SDS011;15330;51.234;6.754;2023-08-06T07:49:23;7.07;;;5.35;;
28003;SDS011;15330;51.234;6.754;2023-08-06T07:51:49;7.40;;;5.07;;
28003;SDS011;15330;51.234;6.754;2023-08-06T07:54:16;8.82;;;5.00;;
28003;SDS011;15330;51.234;6.754;2023-08-06T07:56:42;6.32;;;4.40;;
28003;SDS011;15330;51.234;6.754;2023-08-06T07:59:08;9.13;;;4.50;;
28003;SDS011;15330;51.234;6.754;2023-08-06T08:01:34;6.97;;;4.43;;
28003;SDS011;15330;51.234;6.754;2023-08-06T08:03:59;7.85;;;5.00;;
28003;SDS011;15330;51.234;6.754;2023-08-06T08:06:25;9.57;;;5.18;;
28003;SDS011;15330;51.234;6.754;2023-08-06T08:08:50;6.97;;;5.30;;
28003;SDS011;15330;51.234;6.754;2023-08-06T08:11:16;7.30;;;5.03;;
28003;SDS011;15330;51.234;6.754;2023-08-06T08:13:43;7.32;;;4.50;;
28003;SDS011;15330;51.234;6.754;2023-08-06T08:16:08;6.40;;;4.30;;
28003;SDS011;15330;51.234;6.754;2023-08-06T08:18:34;4.65;;;3.97;;
28003;SDS011;15330;51.234;6.754;2023-08-06T08:20:59;8.27;;;4.25;;
28003;SDS011;15330;51.234;6.754;2023-08-06T08:23:24;5.63;;;4.30;;
28003;SDS011;15330;51.234;6.754;2023-08-06T08:25:50;4.18;;;3.00;;
28003;SDS011;15330;51.234;6.754;2023-08-06T08:28:16;5.57;;;3.45;;
28003;SDS011;15330;51.234;6.754;2023-08-06T08:30:41;5.18;;;3.10;;
28003;SDS011;15330;51.234;6.754;2023-08-06T08:33:06;3.92;;;2.85;;
28003;SDS011;15330;51.234;6.754;2023-08-06T08:35:33;5.20;;;3.10;;
28003;SDS011;15330;51.234;6.754;2023-08-06T08:37:58;3.03;;;2.47;;
28003;SDS011;15330;51.234;6.754;2023-08-06T08:40:25;4.05;;;2.53;;
28003;SDS011;15330;51.234;6.754;2023-08-06T08:42:57;2.85;;;2.53;;
28003;SDS011;15330;51.234;6.754;2023-08-06T08:45:24;4.22;;;2.58;;
28003;SDS011;15330;51.234;6.754;2023-08-06T08:47:53;4.35;;;2.90;;
28003;SDS011;15330;51.234;6.754;2023-08-06T08:50:19;4.10;;;2.40;;
28003;SDS011;15330;51.234;6.754;2023-08-06T08:52:45;2.95;;;2.28;;
28003;SDS011;15330;51.234;6.754;2023-08-06T08:55:11;2.50;;;2.30;;
28003;SDS011;15330;51.234;6.754;2023-08-06T08:57:39;3.20;;;2.20;;
28003;SDS011;15330;51.234;6.754;2023-08-06T09:00:04;5.75;;;2.35;;
28003;SDS011;15330;51.234;6.754;2023-08-06T09:02:31;5.35;;;2.67;;
28003;SDS011;15330;51.234;6.754;2023-08-06T09:04:59;3.15;;;2.60;;
28003;SDS011;15330;51.234;6.754;2023-08-06T09:07:27;2.50;;;2.28;;
28003;SDS011;15330;51.234;6.754;2023-08-06T09:09:56;4.97;;;2.20;;
28003;SDS011;15330;51.234;6.754;2023-08-06T09:12:24;4.53;;;2.40;;
28003;SDS011;15330;51.234;6.754;2023-08-06T09:14:50;3.25;;;2.42;;
28003;SDS011;15330;51.234;6.754;2023-08-06T09:17:16;4.45;;;2.33;;
28003;SDS011;15330;51.234;6.754;2023-08-06T09:19:44;3.15;;;2.40;;
28003;SDS011;15330;51.234;6.754;2023-08-06T09:22:12;3.97;;;2.80;;
28003;SDS011;15330;51.234;6.754;2023-08-06T09:24:39;6.20;;;3.50;;
28003;SDS011;15330;51.234;6.754;2023-08-06T09:27:13;8.63;;;4.38;;
28003;SDS011;15330;51.234;6.754;2023-08-06T09:29:48;5.50;;;3.95;;
28003;SDS011;15330;51.234;6.754;2023-08-06T09:32:14;5.80;;;4.50;;
28003;SDS011;15330;51.234;6.754;2023-08-06T09:34:41;7.72;;;4.63;;
28003;SDS011;15330;51.234;6.754;2023-08-06T09:37:08;6.88;;;4.65;;
28003;SDS011;15330;51.234;6.754;2023-08-06T09:39:34;7.18;;;4.57;;
28003;SDS011;15330;51.234;6.754;2023-08-06T09:42:00;5.32;;;3.60;;
28003;SDS011;15330;51.234;6.754;2023-08-06T09:44:27;10.75;;;5.25;;
28003;SDS011;15330;51.234;6.754;2023-08-06T09:46:54;6.90;;;4.75;;
28003;SDS011;15330;51.234;6.754;2023-08-06T09:49:42;6.55;;;4.85;;
28003;SDS011;15330;51.234;6.754;2023-08-06T09:52:11;6.75;;;5.10;;
28003;SDS011;15330;51.234;6.754;2023-08-06T09:54:38;9.57;;;5.03;;
28003;SDS011;15330;51.234;6.754;2023-08-06T09:57:04;8.45;;;4.50;;
28003;SDS011;15330;51.234;6.754;2023-08-06T09:59:30;8.43;;;3.70;;
28003;SDS011;15330;51.234;6.754;2023-08-06T10:01:58;8.73;;;2.97;;
28003;SDS011;15330;51.234;6.754;2023-08-06T10:04:24;6.30;;;3.08;;
28003;SDS011;15330;51.234;6.754;2023-08-06T10:06:50;6.90;;;3.05;;
28003;SDS011;15330;51.234;6.754;2023-08-06T10:09:15;5.72;;;2.85;;
28003;SDS011;15330;51.234;6.754;2023-08-06T10:11:42;4.60;;;2.60;;
28003;SDS011;15330;51.234;6.754;2023-08-06T10:14:28;3.42;;;2.55;;
28003;SDS011;15330;51.234;6.754;2023-08-06T10:16:57;5.63;;;2.72;;
28003;SDS011;15330;51.234;6.754;2023-08-06T10:19:24;3.72;;;2.65;;
28003;SDS011;15330;51.234;6.754;2023-08-06T10:22:12;3.10;;;2.33;;
28003;SDS011;15330;51.234;6.754;2023-08-06T10:27:12;3.83;;;2.75;;
28003;SDS011;15330;51.234;6.754;2023-08-06T10:29:38;2.58;;;2.38;;
28003;SDS011;15330;51.234;6.754;2023-08-06T10:32:03;2.83;;;2.40;;
28003;SDS011;15330;51.234;6.754;2023-08-06T10:37:19;2.20;;;1.70;;
28003;SDS011;15330;51.234;6.754;2023-08-06T10:39:52;1.75;;;1.25;;
28003;SDS011;15330;51.234;6.754;2023-08-06T10:42:35;1.67;;;1.15;;
28003;SDS011;15330;51.234;6.754;2023-08-06T10:45:17;2.15;;;0.98;;
28003;SDS011;15330;51.234;6.754;2023-08-06T10:47:44;1.05;;;0.90;;
28003;SDS011;15330;51.234;6.754;2023-08-06T10:50:11;1.15;;;0.90;;
28003;SDS011;15330;51.234;6.754;2023-08-06T10:52:39;1.45;;;0.90;;
28003;SDS011;15330;51.234;6.754;2023-08-06T10:55:05;2.72;;;1.70;;
28003;SDS011;15330;51.234;6.754;2023-08-06T10:57:31;1.60;;;1.50;;
28003;SDS011;15330;51.234;6.754;2023-08-06T10:59:56;1.88;;;1.77;;
28003;SDS011;15330;51.234;6.754;2023-08-06T11:02:22;3.88;;;2.20;;
28003;SDS011;15330;51.234;6.754;2023-08-06T11:04:48;5.00;;;2.53;;
28003;SDS011;15330;51.234;6.754;2023-08-06T11:07:13;3.28;;;2.60;;
28003;SDS011;15330;51.234;6.754;2023-08-06T11:09:40;3.38;;;2.88;;
28003;SDS011;15330;51.234;6.754;2023-08-06T11:12:08;2.58;;;2.33;;
28003;SDS011;15330;51.234;6.754;2023-08-06T11:14:35;4.65;;;2.53;;
28003;SDS011;15330;51.234;6.754;2023-08-06T11:17:00;2.65;;;2.40;;
28003;SDS011;15330;51.234;6.754;2023-08-06T11:19:26;2.35;;;2.15;;
28003;SDS011;15330;51.234;6.754;2023-08-06T11:21:51;3.83;;;2.47;;
28003;SDS011;15330;51.234;6.754;2023-08-06T11:24:17;2.08;;;1.90;;
28003;SDS011;15330;51.234;6.754;2023-08-06T11:26:42;2.08;;;1.80;;
28003;SDS011;15330;51.234;6.754;2023-08-06T11:29:09;3.30;;;2.38;;
28003;SDS011;15330;51.234;6.754;2023-08-06T11:31:35;3.75;;;2.28;;
28003;SDS011;15330;51.234;6.754;2023-08-06T11:34:01;4.38;;;2.65;;
28003;SDS011;15330;51.234;6.754;2023-08-06T11:36:36;3.40;;;2.67;;
28003;SDS011;15330;51.234;6.754;2023-08-06T11:39:05;5.25;;;3.35;;
28003;SDS011;15330;51.234;6.754;2023-08-06T11:41:31;5.30;;;3.60;;
28003;SDS011;15330;51.234;6.754;2023-08-06T11:44:00;5.53;;;4.05;;
28003;SDS011;15330;51.234;6.754;2023-08-06T11:46:25;7.28;;;4.55;;
28003;SDS011;15330;51.234;6.754;2023-08-06T11:48:51;9.50;;;4.47;;
28003;SDS011;15330;51.234;6.754;2023-08-06T11:51:17;6.63;;;4.00;;
28003;SDS011;15330;51.234;6.754;2023-08-06T11:53:48;7.70;;;4.72;;
28003;SDS011;15330;51.234;6.754;2023-08-06T11:56:14;5.75;;;3.95;;
28003;SDS011;15330;51.234;6.754;2023-08-06T11:58:40;7.50;;;4.10;;
28003;SDS011;15330;51.234;6.754;2023-08-06T12:01:06;7.35;;;4.53;;
28003;SDS011;15330;51.234;6.754;2023-08-06T12:03:31;8.88;;;4.47;;
28003;SDS011;15330;51.234;6.754;2023-08-06T12:05:57;8.43;;;4.55;;
28003;SDS011;15330;51.234;6.754;2023-08-06T12:08:26;11.35;;;4.68;;
28003;SDS011;15330;51.234;6.754;2023-08-06T12:10:52;10.57;;;5.32;;
28003;SDS011;15330;51.234;6.754;2023-08-06T12:13:18;8.05;;;4.60;;
28003;SDS011;15330;51.234;6.754;2023-08-06T12:15:44;8.40;;;4.95;;
28003;SDS011;15330;51.234;6.754;2023-08-06T12:18:10;7.78;;;4.43;;
28003;SDS011;15330;51.234;6.754;2023-08-06T12:20:35;7.80;;;4.55;;
28003;SDS011;15330;51.234;6.754;2023-08-06T12:23:03;7.50;;;4.53;;
28003;SDS011;15330;51.234;6.754;2023-08-06T12:25:29;7.20;;;4.43;;
28003;SDS011;15330;51.234;6.754;2023-08-06T12:27:54;8.70;;;4.45;;
28003;SDS011;15330;51.234;6.754;2023-08-06T12:30:19;6.95;;;4.43;;
28003;SDS011;15330;51.234;6.754;2023-08-06T12:32:45;7.90;;;4.00;;
28003;SDS011;15330;51.234;6.754;2023-08-06T12:35:10;9.63;;;4.20;;
28003;SDS011;15330;51.234;6.754;2023-08-06T12:37:36;5.90;;;3.70;;
28003;SDS011;15330;51.234;6.754;2023-08-06T12:40:03;8.55;;;4.20;;
28003;SDS011;15330;51.234;6.754;2023-08-06T12:42:29;8.77;;;4.05;;
28003;SDS011;15330;51.234;6.754;2023-08-06T12:44:54;6.18;;;3.85;;
28003;SDS011;15330;51.234;6.754;2023-08-06T12:47:20;7.20;;;4.10;;
28003;SDS011;15330;51.234;6.754;2023-08-06T12:49:45;7.10;;;4.22;;
28003;SDS011;15330;51.234;6.754;2023-08-06T12:52:10;8.80;;;4.75;;
28003;SDS011;15330;51.234;6.754;2023-08-06T12:54:37;7.13;;;4.47;;
28003;SDS011;15330;51.234;6.754;2023-08-06T12:57:04;6.32;;;3.90;;
28003;SDS011;15330;51.234;6.754;2023-08-06T12:59:30;5.22;;;3.10;;
28003;SDS011;15330;51.234;6.754;2023-08-06T13:01:55;4.80;;;3.53;;
28003;SDS011;15330;51.234;6.754;2023-08-06T13:04:24;4.07;;;3.05;;
28003;SDS011;15330;51.234;6.754;2023-08-06T13:06:49;5.43;;;2.90;;
28003;SDS011;15330;51.234;6.754;2023-08-06T13:09:15;4.38;;;2.90;;
28003;SDS011;15330;51.234;6.754;2023-08-06T13:11:41;4.28;;;2.92;;
28003;SDS011;15330;51.234;6.754;2023-08-06T13:14:10;4.25;;;2.60;;
28003;SDS011;15330;51.234;6.754;2023-08-06T13:16:37;4.55;;;2.47;;
28003;SDS011;15330;51.234;6.754;2023-08-06T13:19:04;5.40;;;2.50;;
28003;SDS011;15330;51.234;6.754;2023-08-06T13:21:32;4.25;;;2.50;;
28003;SDS011;15330;51.234;6.754;2023-08-06T13:24:16;4.25;;;2.45;;
28003;SDS011;15330;51.234;6.754;2023-08-06T13:26:42;5.68;;;2.30;;
28003;SDS011;15330;51.234;6.754;2023-08-06T13:29:08;3.70;;;2.42;;
28003;SDS011;15330;51.234;6.754;2023-08-06T13:31:33;5.28;;;2.58;;
28003;SDS011;15330;51.234;6.754;2023-08-06T13:33:58;7.72;;;2.72;;
28003;SDS011;15330;51.234;6.754;2023-08-06T13:36:27;6.18;;;2.50;;
28003;SDS011;15330;51.234;6.754;2023-08-06T13:38:53;4.75;;;2.88;;
28003;SDS011;15330;51.234;6.754;2023-08-06T13:41:18;4.50;;;2.30;;
28003;SDS011;15330;51.234;6.754;2023-08-06T13:43:44;4.03;;;2.83;;
28003;SDS011;15330;51.234;6.754;2023-08-06T13:46:10;7.07;;;2.80;;
28003;SDS011;15330;51.234;6.754;2023-08-06T13:48:39;3.55;;;2.42;;
28003;SDS011;15330;51.234;6.754;2023-08-06T13:51:05;7.50;;;2.97;;
28003;SDS011;15330;51.234;6.754;2023-08-06T13:53:30;6.60;;;3.25;;
28003;SDS011;15330;51.234;6.754;2023-08-06T13:55:56;4.47;;;3.00;;
28003;SDS011;15330;51.234;6.754;2023-08-06T13:58:22;7.00;;;2.97;;
28003;SDS011;15330;51.234;6.754;2023-08-06T14:00:48;6.30;;;3.25;;
28003;SDS011;15330;51.234;6.754;2023-08-06T14:03:14;4.70;;;3.22;;
28003;SDS011;15330;51.234;6.754;2023-08-06T14:05:39;4.60;;;2.67;;
28003;SDS011;15330;51.234;6.754;2023-08-06T14:08:04;9.25;;;3.55;;
28003;SDS011;15330;51.234;6.754;2023-08-06T14:10:30;5.05;;;3.20;;
28003;SDS011;15330;51.234;6.754;2023-08-06T14:12:55;6.70;;;3.00;;
28003;SDS011;15330;51.234;6.754;2023-08-06T14:15:21;5.95;;;2.80;;
28003;SDS011;15330;51.234;6.754;2023-08-06T14:17:46;6.20;;;2.80;;
28003;SDS011;15330;51.234;6.754;2023-08-06T14:20:12;4.45;;;2.92;;
28003;SDS011;15330;51.234;6.754;2023-08-06T14:22:37;4.80;;;3.10;;
28003;SDS011;15330;51.234;6.754;2023-08-06T14:25:03;5.10;;;2.85;;
28003;SDS011;15330;51.234;6.754;2023-08-06T14:27:29;5.60;;;2.63;;
28003;SDS011;15330;51.234;6.754;2023-08-06T14:29:54;4.53;;;2.85;;
28003;SDS011;15330;51.234;6.754;2023-08-06T14:32:20;7.18;;;2.80;;
28003;SDS011;15330;51.234;6.754;2023-08-06T14:34:46;3.60;;;2.20;;
28003;SDS011;15330;51.234;6.754;2023-08-06T14:37:11;3.40;;;2.35;;
28003;SDS011;15330;51.234;6.754;2023-08-06T14:39:37;6.18;;;3.13;;
28003;SDS011;15330;51.234;6.754;2023-08-06T14:42:03;5.43;;;3.22;;
28003;SDS011;15330;51.234;6.754;2023-08-06T14:44:29;6.53;;;2.60;;
28003;SDS011;15330;51.234;6.754;2023-08-06T14:46:55;5.13;;;2.63;;
28003;SDS011;15330;51.234;6.754;2023-08-06T14:49:20;6.72;;;2.42;;